Time;durP1;ratioP1;P1;durP2;ratioP2;P2;SDS_P1;SDS_P2;PMS_P1;PMS_P2;Temp;Humidity;BMP_temperature;BMP_pressure;BME280_temperature;BME280_humidity;BME280_pressure;Samples;Min_cycle;Max_cycle;Signal;HPM_P1;HPM_P2
2024/04/06 00:00:55;;;;;;;3.47;1.23;;;17.20;96.40;;;;;;4974496;28;20446;-40
2024/04/06 00:03:21;;;;;;;2.45;1.30;;;17.10;96.30;;;;;;4974765;28;20030;-40
2024/04/06 00:05:47;;;;;;;3.28;1.17;;;17.10;96.40;;;;;;4974662;28;20047;-40
2024/04/06 00:08:12;;;;;;;1.55;1.00;;;17.10;96.40;;;;;;4974444;28;20489;-40
2024/04/06 00:10:38;;;;;;;1.45;0.98;;;17.10;96.40;;;;;;4974277;28;20034;-40
2024/04/06 00:13:03;;;;;;;2.25;1.20;;;17.10;96.40;;;;;;4974843;28;20033;-40
2024/04/06 00:15:29;;;;;;;1.45;1.00;;;17.10;96.40;;;;;;4974446;28;20050;-40
2024/04/06 00:17:55;;;;;;;2.13;1.20;;;17.10;96.40;;;;;;4974415;28;20483;-40
2024/04/06 00:20:21;;;;;;;1.30;1.08;;;17.10;96.40;;;;;;4974120;28;20458;-40
2024/04/06 00:22:46;;;;;;;2.03;0.98;;;17.00;96.40;;;;;;4974291;28;20106;-40
2024/04/06 00:25:12;;;;;;;1.20;0.90;;;17.00;96.40;;;;;;4974097;28;20046;-40
2024/04/06 00:27:37;;;;;;;1.98;1.23;;;17.00;96.40;;;;;;4974124;28;20035;-40
2024/04/06 00:30:04;;;;;;;1.92;1.00;;;17.00;96.80;;;;;;4974357;28;20015;-40
2024/04/06 00:32:29;;;;;;;1.38;1.08;;;17.00;96.40;;;;;;4974206;28;20481;-40
2024/04/06 00:34:55;;;;;;;2.20;1.10;;;17.10;96.40;;;;;;4974637;28;20037;-40
2024/04/06 00:37:20;;;;;;;1.60;1.00;;;17.00;96.40;;;;;;4976123;28;20022;-40
2024/04/06 00:39:46;;;;;;;1.08;0.90;;;17.10;96.50;;;;;;4976834;28;20113;-40
2024/04/06 00:42:12;;;;;;;2.67;1.10;;;17.10;96.50;;;;;;4976669;28;20038;-40
2024/04/06 00:44:37;;;;;;;1.50;1.10;;;17.00;96.40;;;;;;4977150;28;20106;-40
2024/04/06 00:47:03;;;;;;;1.50;0.90;;;17.10;96.50;;;;;;4974760;28;20114;-40
2024/04/06 00:49:29;;;;;;;1.75;0.93;;;17.00;96.40;;;;;;4973945;28;20118;-40
2024/04/06 00:51:55;;;;;;;2.00;1.17;;;17.00;96.40;;;;;;4973719;28;20478;-40
2024/04/06 00:54:21;;;;;;;1.30;0.95;;;17.00;96.40;;;;;;4973708;28;20086;-40
2024/04/06 00:56:49;;;;;;;1.83;0.90;;;17.00;96.40;;;;;;4973629;28;20058;-40
2024/04/06 00:59:16;;;;;;;1.35;0.90;;;17.00;96.50;;;;;;4973637;28;20086;-40
2024/04/06 01:01:41;;;;;;;2.25;1.10;;;17.00;96.40;;;;;;4973556;28;20540;-40
2024/04/06 01:04:07;;;;;;;2.00;1.05;;;17.00;96.40;;;;;;4973592;28;20034;-40
2024/04/06 01:06:33;;;;;;;2.00;0.98;;;17.00;96.40;;;;;;4973444;28;20151;-40
2024/04/06 01:08:58;;;;;;;1.73;1.10;;;17.00;96.40;;;;;;4973223;28;20040;-40
2024/04/06 01:11:24;;;;;;;2.15;1.10;;;17.00;96.40;;;;;;4973172;28;20023;-40
2024/04/06 01:13:50;;;;;;;1.52;0.93;;;17.00;96.40;;;;;;4973403;28;20049;-40
2024/04/06 01:16:15;;;;;;;1.30;0.90;;;17.00;96.40;;;;;;4973323;28;20031;-40
2024/04/06 01:18:41;;;;;;;1.80;1.10;;;17.00;96.40;;;;;;4973043;28;20043;-40
2024/04/06 01:21:08;;;;;;;2.35;1.20;;;17.00;96.40;;;;;;4973230;28;20054;-40
2024/04/06 01:23:35;;;;;;;1.30;0.98;;;17.00;96.50;;;;;;4973237;28;20098;-40
2024/04/06 01:26:01;;;;;;;1.70;1.10;;;17.00;96.40;;;;;;4973439;28;20030;-41
2024/04/06 01:28:27;;;;;;;4.97;1.10;;;16.90;96.40;;;;;;4973035;28;20118;-40
2024/04/06 01:30:53;;;;;;;1.50;1.00;;;17.00;96.40;;;;;;4973097;28;20478;-40
2024/04/06 01:33:19;;;;;;;1.48;1.00;;;17.00;96.40;;;;;;4973217;28;20390;-40
2024/04/06 01:35:44;;;;;;;1.23;0.90;;;17.00;96.50;;;;;;4972142;28;20019;-40
2024/04/06 01:38:10;;;;;;;2.38;0.88;;;17.00;96.50;;;;;;4972963;28;20375;-40
2024/04/06 01:40:36;;;;;;;2.08;1.20;;;16.90;96.40;;;;;;4973000;28;20482;-40
2024/04/06 01:43:02;;;;;;;1.48;1.00;;;16.90;96.80;;;;;;4972995;28;20026;-40
2024/04/06 01:45:27;;;;;;;1.67;1.20;;;16.90;96.40;;;;;;4972989;28;20030;-40
2024/04/06 01:47:53;;;;;;;1.85;1.17;;;16.90;96.40;;;;;;4973169;28;20106;-40
2024/04/06 01:50:19;;;;;;;5.00;1.40;;;16.90;96.40;;;;;;4972896;28;20046;-40
2024/04/06 01:52:44;;;;;;;1.60;1.10;;;16.90;96.40;;;;;;4972880;28;20026;-40
2024/04/06 01:55:10;;;;;;;1.52;1.00;;;16.90;96.40;;;;;;4973198;28;20042;-40
2024/04/06 01:57:35;;;;;;;1.83;1.00;;;16.90;96.70;;;;;;4972905;28;20030;-40
2024/04/06 02:00:01;;;;;;;1.95;1.15;;;16.90;96.40;;;;;;4972813;28;20022;-41
2024/04/06 02:02:27;;;;;;;1.90;1.23;;;16.90;96.40;;;;;;4972943;28;20031;-40
2024/04/06 02:04:52;;;;;;;1.05;0.75;;;16.90;96.40;;;;;;4972869;28;20062;-40
2024/04/06 02:07:18;;;;;;;2.13;0.90;;;16.90;96.50;;;;;;4972718;28;20390;-40
2024/04/06 02:09:44;;;;;;;2.58;1.15;;;16.90;96.50;;;;;;4972905;28;20038;-40
2024/04/06 02:12:10;;;;;;;1.13;0.88;;;16.90;96.50;;;;;;4972719;28;20114;-40
2024/04/06 02:14:36;;;;;;;1.40;1.00;;;16.80;96.40;;;;;;4972810;28;20023;-40
2024/04/06 02:17:05;;;;;;;4.65;1.20;;;16.90;96.80;;;;;;4972697;28;20045;-40
2024/04/06 02:19:30;;;;;;;2.17;1.17;;;16.90;96.50;;;;;;4973050;28;20034;-41
2024/04/06 02:21:56;;;;;;;3.25;1.25;;;16.90;96.50;;;;;;4973226;28;20549;-40
2024/04/06 02:24:22;;;;;;;1.88;1.08;;;16.90;96.40;;;;;;4976674;28;20030;-41
2024/04/06 02:26:48;;;;;;;1.27;1.10;;;16.80;96.40;;;;;;4976635;28;20031;-40
2024/04/06 02:29:13;;;;;;;1.85;1.13;;;16.90;96.40;;;;;;4976355;28;20389;-40
2024/04/06 02:31:39;;;;;;;2.13;1.25;;;16.90;96.40;;;;;;4976343;28;20054;-40
2024/04/06 02:34:05;;;;;;;1.75;1.02;;;16.90;96.40;;;;;;4976479;28;20069;-40
2024/04/06 02:36:30;;;;;;;1.75;0.85;;;16.80;96.40;;;;;;4976199;28;20494;-40
2024/04/06 02:38:56;;;;;;;2.60;1.10;;;16.80;96.70;;;;;;4976162;28;20564;-40
2024/04/06 02:41:21;;;;;;;1.95;1.20;;;16.80;96.40;;;;;;4976149;28;20442;-40
2024/04/06 02:43:49;;;;;;;2.13;1.25;;;16.90;96.50;;;;;;4976205;28;20105;-40
2024/04/06 02:46:15;;;;;;;2.65;1.00;;;16.90;96.40;;;;;;4976131;28;20385;-40
2024/04/06 02:48:41;;;;;;;3.17;1.00;;;16.90;96.40;;;;;;4975772;28;20110;-40
2024/04/06 02:51:06;;;;;;;2.88;1.20;;;16.80;96.40;;;;;;4975794;28;20085;-40
2024/04/06 02:53:32;;;;;;;1.50;0.93;;;16.80;96.40;;;;;;4976184;28;20022;-40
2024/04/06 02:55:57;;;;;;;1.42;1.02;;;16.80;96.40;;;;;;4976004;28;20501;-40
2024/04/06 02:58:23;;;;;;;1.95;1.10;;;16.80;96.40;;;;;;4975777;28;20026;-40
2024/04/06 03:00:49;;;;;;;3.35;1.30;;;16.80;96.40;;;;;;4975773;28;20026;-40
2024/04/06 03:03:15;;;;;;;2.88;1.20;;;16.80;96.50;;;;;;4975879;28;20019;-40
2024/04/06 03:05:41;;;;;;;1.70;1.15;;;16.80;96.50;;;;;;4975742;28;20041;-40
2024/04/06 03:08:07;;;;;;;3.38;1.48;;;16.80;96.50;;;;;;4975647;28;20027;-40
2024/04/06 03:10:33;;;;;;;1.23;0.80;;;16.80;96.50;;;;;;4975687;28;20034;-40
2024/04/06 03:12:59;;;;;;;3.63;0.82;;;16.80;96.50;;;;;;4975798;28;20023;-40
2024/04/06 03:15:25;;;;;;;1.90;0.82;;;16.80;96.50;;;;;;4975724;28;20102;-40
2024/04/06 03:17:52;;;;;;;1.48;0.80;;;16.70;96.40;;;;;;4975461;28;20023;-40
2024/04/06 03:20:17;;;;;;;1.50;0.82;;;16.70;96.40;;;;;;4973786;28;20443;-40
2024/04/06 03:22:58;;;;;;;2.50;1.00;;;16.80;96.50;;;;;;4975484;28;20034;-40
2024/04/06 03:25:23;;;;;;;1.17;0.95;;;16.80;96.50;;;;;;4975495;28;20058;-40
2024/04/06 03:27:49;;;;;;;3.13;1.10;;;16.70;96.40;;;;;;4975300;28;20450;-40
2024/04/06 03:30:14;;;;;;;1.45;0.90;;;16.80;96.40;;;;;;4975671;28;20073;-40
2024/04/06 03:32:40;;;;;;;1.38;0.95;;;16.80;96.40;;;;;;4975098;28;20394;-40
2024/04/06 03:35:06;;;;;;;1.38;0.90;;;16.80;96.40;;;;;;4975275;28;20023;-40
2024/04/06 03:37:31;;;;;;;2.28;1.02;;;16.80;96.40;;;;;;4975111;28;20565;-40
2024/04/06 03:39:57;;;;;;;3.15;1.10;;;16.70;96.40;;;;;;4975016;28;20027;-40
2024/04/06 03:42:26;;;;;;;1.02;0.90;;;16.70;96.40;;;;;;4975022;28;20394;-40
2024/04/06 03:44:51;;;;;;;2.67;1.02;;;16.70;96.50;;;;;;4974906;28;20435;-40
2024/04/06 03:47:17;;;;;;;2.45;1.38;;;16.70;96.50;;;;;;4975142;28;20061;-40
2024/04/06 03:49:42;;;;;;;1.60;0.90;;;16.70;96.50;;;;;;4974766;28;20043;-40
2024/04/06 03:52:08;;;;;;;1.50;0.90;;;16.70;96.50;;;;;;4975000;28;20038;-40
2024/04/06 03:54:34;;;;;;;1.92;1.00;;;16.70;96.50;;;;;;4975108;28;20019;-40
2024/04/06 03:56:59;;;;;;;1.65;1.05;;;16.70;96.50;;;;;;4974889;28;20026;-40
2024/04/06 03:59:25;;;;;;;2.47;1.10;;;16.70;96.50;;;;;;4974907;28;20031;-40
2024/04/06 04:01:51;;;;;;;2.88;0.95;;;16.70;96.50;;;;;;4973619;28;20046;-40
2024/04/06 04:04:16;;;;;;;2.90;1.20;;;16.70;96.50;;;;;;4975198;28;20386;-40
2024/04/06 04:06:42;;;;;;;2.03;1.23;;;16.70;96.40;;;;;;4974712;28;20425;-40
2024/04/06 04:09:08;;;;;;;2.42;1.00;;;16.70;96.40;;;;;;4974472;28;20037;-40
2024/04/06 04:11:33;;;;;;;2.67;1.20;;;16.70;96.40;;;;;;4974509;28;20019;-40
2024/04/06 04:13:59;;;;;;;1.88;1.10;;;16.70;96.40;;;;;;4974489;28;20033;-40
2024/04/06 04:16:25;;;;;;;1.15;0.75;;;16.60;96.50;;;;;;4974613;28;20015;-40
2024/04/06 04:18:50;;;;;;;1.75;1.13;;;16.60;96.50;;;;;;4974145;28;20033;-40
2024/04/06 04:21:16;;;;;;;1.80;0.90;;;16.60;96.50;;;;;;4974585;28;20044;-40
2024/04/06 04:23:44;;;;;;;2.05;1.08;;;16.60;96.50;;;;;;4974845;28;20061;-40
2024/04/06 04:26:10;;;;;;;2.22;0.90;;;16.60;96.50;;;;;;4974380;28;20030;-40
2024/04/06 04:28:35;;;;;;;2.25;1.30;;;16.60;96.50;;;;;;4974045;28;20034;-40
2024/04/06 04:31:15;;;;;;;2.53;1.10;;;16.60;96.50;;;;;;4974258;28;20058;-40
2024/04/06 04:33:41;;;;;;;1.60;1.00;;;16.60;96.50;;;;;;4974391;28;20014;-40
2024/04/06 04:36:07;;;;;;;2.22;0.90;;;16.60;96.50;;;;;;4974635;28;20093;-40
2024/04/06 04:38:34;;;;;;;2.47;0.90;;;16.60;96.60;;;;;;4974145;28;20031;-40
2024/04/06 04:41:00;;;;;;;2.67;0.82;;;16.60;96.50;;;;;;4973979;28;20022;-40
2024/04/06 04:43:25;;;;;;;2.53;0.90;;;16.60;96.40;;;;;;4974071;28;20088;-40
2024/04/06 04:45:51;;;;;;;1.70;0.93;;;16.60;96.40;;;;;;4973693;28;20046;-40
2024/04/06 04:48:17;;;;;;;3.33;1.10;;;16.60;96.40;;;;;;4973710;28;20034;-40
2024/04/06 04:50:42;;;;;;;1.75;0.93;;;16.60;96.30;;;;;;4973705;28;20482;-40
2024/04/06 04:53:09;;;;;;;1.80;1.23;;;16.60;96.40;;;;;;4974177;28;20032;-40
2024/04/06 04:55:36;;;;;;;1.90;1.15;;;16.60;96.40;;;;;;4973932;28;20074;-40
2024/04/06 04:58:02;;;;;;;1.85;0.90;;;16.60;96.70;;;;;;4973621;28;20558;-40
2024/04/06 05:00:28;;;;;;;2.60;1.30;;;16.60;96.40;;;;;;4972307;28;20125;-40
2024/04/06 05:02:53;;;;;;;2.88;1.00;;;16.60;96.40;;;;;;4973619;28;20026;-40
2024/04/06 05:05:19;;;;;;;2.00;0.90;;;16.60;96.40;;;;;;4973552;28;20118;-40
2024/04/06 05:07:45;;;;;;;3.50;1.00;;;16.50;96.40;;;;;;4973536;28;20034;-40
2024/04/06 05:10:11;;;;;;;1.73;1.20;;;16.50;96.50;;;;;;4973407;28;20022;-40
2024/04/06 05:12:37;;;;;;;1.48;0.95;;;16.50;96.50;;;;;;4973662;28;20101;-40
2024/04/06 05:15:03;;;;;;;2.10;1.10;;;16.50;96.40;;;;;;4973567;28;20098;-40
2024/04/06 05:17:28;;;;;;;1.67;0.80;;;16.50;96.40;;;;;;4973315;28;20031;-40
2024/04/06 05:19:54;;;;;;;1.42;0.88;;;16.50;96.40;;;;;;4973002;28;20046;-40
2024/04/06 05:22:19;;;;;;;1.92;1.00;;;16.50;96.50;;;;;;4973498;28;20082;-40
2024/04/06 05:24:45;;;;;;;1.90;1.27;;;16.50;96.50;;;;;;4973415;28;20465;-40
2024/04/06 05:27:11;;;;;;;1.65;1.08;;;16.50;96.50;;;;;;4973349;28;20031;-40
2024/04/06 05:29:37;;;;;;;2.42;1.00;;;16.50;96.50;;;;;;4973341;28;20046;-40
2024/04/06 05:32:03;;;;;;;1.70;1.00;;;16.40;96.50;;;;;;4973290;28;20027;-40
2024/04/06 05:34:29;;;;;;;2.95;1.20;;;16.40;96.50;;;;;;4973212;28;20023;-40
2024/04/06 05:36:55;;;;;;;1.63;1.15;;;16.40;96.60;;;;;;4973107;28;20034;-40
2024/04/06 05:39:21;;;;;;;3.72;1.55;;;16.40;96.60;;;;;;4973139;28;20031;-40
2024/04/06 05:41:47;;;;;;;1.40;0.80;;;16.40;96.50;;;;;;4972943;28;20193;-40
2024/04/06 05:44:13;;;;;;;1.90;1.23;;;16.40;96.60;;;;;;4973606;28;20050;-40
2024/04/06 05:46:39;;;;;;;2.00;1.05;;;16.40;96.60;;;;;;4973025;28;20070;-40
2024/04/06 05:49:07;;;;;;;1.67;1.00;;;16.40;96.60;;;;;;4972823;28;20073;-40
2024/04/06 05:51:33;;;;;;;1.52;1.05;;;16.40;96.60;;;;;;4973022;28;20498;-40
2024/04/06 05:54:00;;;;;;;2.72;1.00;;;16.30;96.60;;;;;;4973087;28;20077;-40
2024/04/06 05:56:26;;;;;;;1.77;1.15;;;16.30;96.60;;;;;;4973123;28;20027;-40
2024/04/06 05:58:52;;;;;;;1.58;1.00;;;16.30;96.60;;;;;;4976736;28;20053;-40
2024/04/06 06:01:17;;;;;;;1.48;1.08;;;16.30;96.60;;;;;;4976887;28;20034;-40
2024/04/06 06:03:43;;;;;;;3.72;0.98;;;16.30;97.00;;;;;;4977066;28;20490;-40
2024/04/06 06:06:09;;;;;;;3.72;1.10;;;16.30;96.70;;;;;;4977076;28;20027;-40
2024/04/06 06:08:34;;;;;;;1.85;1.10;;;16.30;96.70;;;;;;4977010;28;20049;-40
2024/04/06 06:11:00;;;;;;;1.25;1.02;;;16.30;96.70;;;;;;4977134;28;20557;-40
2024/04/06 06:13:25;;;;;;;1.60;1.05;;;16.30;96.70;;;;;;4979162;28;20031;-40
2024/04/06 06:15:51;;;;;;;2.33;1.05;;;16.30;96.80;;;;;;4979469;28;20023;-40
2024/04/06 06:18:17;;;;;;;1.13;0.88;;;16.30;96.80;;;;;;4978752;28;20031;-40
2024/04/06 06:20:42;;;;;;;1.15;0.85;;;16.30;96.80;;;;;;4978054;28;20057;-40
2024/04/06 06:23:08;;;;;;;2.03;1.20;;;16.30;96.80;;;;;;4976553;28;20447;-40
2024/04/06 06:25:34;;;;;;;1.17;0.80;;;16.30;96.80;;;;;;4976614;28;20027;-40
2024/04/06 06:28:00;;;;;;;1.42;0.90;;;16.30;96.80;;;;;;4976374;28;20048;-40
2024/04/06 06:30:26;;;;;;;1.20;0.80;;;16.30;96.80;;;;;;4976736;28;20390;-40
2024/04/06 06:32:52;;;;;;;1.85;0.98;;;16.30;96.80;;;;;;4976377;28;20027;-41
2024/04/06 06:35:18;;;;;;;1.67;0.77;;;16.30;97.20;;;;;;4976452;28;20490;-41
2024/04/06 06:37:46;;;;;;;1.60;1.13;;;16.30;96.80;;;;;;4976298;28;20149;-39
2024/04/06 06:40:12;;;;;;;1.30;0.93;;;16.30;96.80;;;;;;4975046;28;20023;-40
2024/04/06 06:42:38;;;;;;;2.63;0.85;;;16.30;96.80;;;;;;4976283;28;20023;-41
2024/04/06 06:45:05;;;;;;;3.70;1.10;;;16.30;96.90;;;;;;4976099;28;20070;-40
2024/04/06 06:47:34;;;;;;;1.33;0.90;;;16.30;96.90;;;;;;4975997;28;20026;-40
2024/04/06 06:50:01;;;;;;;2.15;1.17;;;16.30;96.90;;;;;;4975873;28;20098;-40
2024/04/06 06:52:27;;;;;;;2.25;1.00;;;16.30;96.90;;;;;;4976125;28;20025;-41
2024/04/06 06:54:52;;;;;;;1.40;0.85;;;16.30;96.90;;;;;;4975989;28;20023;-41
2024/04/06 06:57:18;;;;;;;1.98;0.90;;;16.30;96.90;;;;;;4976353;28;20471;-41
2024/04/06 06:59:43;;;;;;;1.42;1.00;;;16.30;96.90;;;;;;4976190;28;20086;-41
2024/04/06 07:02:10;;;;;;;1.23;1.02;;;16.30;96.90;;;;;;4975742;28;20027;-40
2024/04/06 07:04:36;;;;;;;1.27;0.93;;;16.40;96.80;;;;;;4975895;28;20473;-41
2024/04/06 07:07:02;;;;;;;1.25;0.90;;;16.40;96.80;;;;;;4975980;28;20023;-41
2024/04/06 07:09:46;;;;;;;2.80;1.23;;;16.40;96.80;;;;;;4975133;28;20023;-41
2024/04/06 07:12:12;;;;;;;2.35;1.00;;;16.50;96.80;;;;;;4975562;28;20022;-41
2024/04/06 07:14:37;;;;;;;1.55;0.90;;;16.50;96.70;;;;;;4975622;28;20030;-41
2024/04/06 07:17:03;;;;;;;1.25;0.95;;;16.50;96.70;;;;;;4974422;28;20123;-40
2024/04/06 07:19:29;;;;;;;1.65;0.93;;;16.50;96.60;;;;;;4975201;28;20039;-41
2024/04/06 07:21:54;;;;;;;1.05;0.85;;;16.60;96.70;;;;;;4975282;28;20026;-40
2024/04/06 07:24:21;;;;;;;3.83;1.10;;;16.60;96.60;;;;;;4975318;28;20031;-41
2024/04/06 07:26:47;;;;;;;1.05;0.80;;;16.60;96.60;;;;;;4975396;28;20026;-41
2024/04/06 07:29:12;;;;;;;1.30;0.98;;;16.60;96.60;;;;;;4975251;28;20038;-41
2024/04/06 07:31:38;;;;;;;1.50;0.90;;;16.60;96.60;;;;;;4975324;28;20544;-40
2024/04/06 07:34:03;;;;;;;2.17;1.10;;;16.60;96.50;;;;;;4975297;28;20031;-41
2024/04/06 07:36:29;;;;;;;1.63;1.00;;;16.70;96.60;;;;;;4975325;28;20049;-41
2024/04/06 07:38:54;;;;;;;1.08;0.77;;;16.70;96.50;;;;;;4974983;28;20027;-41
2024/04/06 07:41:20;;;;;;;1.25;0.93;;;16.70;96.50;;;;;;4975047;28;20523;-41
2024/04/06 07:43:46;;;;;;;1.30;0.80;;;16.80;96.50;;;;;;4975305;28;20050;-41
2024/04/06 07:46:11;;;;;;;1.90;0.90;;;16.80;96.40;;;;;;4975016;28;20109;-41
2024/04/06 07:48:37;;;;;;;1.05;0.68;;;16.80;96.40;;;;;;4974919;28;20042;-41
2024/04/06 07:51:03;;;;;;;1.40;0.80;;;16.80;96.40;;;;;;4974905;28;20033;-41
2024/04/06 07:53:29;;;;;;;1.42;0.90;;;16.80;96.60;;;;;;4974844;28;20019;-41
2024/04/06 07:55:55;;;;;;;1.25;0.85;;;16.90;96.30;;;;;;4974801;28;20023;-41
2024/04/06 07:58:20;;;;;;;1.33;0.80;;;17.00;96.30;;;;;;4973657;28;20106;-41
2024/04/06 08:00:46;;;;;;;1.75;1.00;;;16.90;96.20;;;;;;4974701;28;20065;-41
2024/04/06 08:03:11;;;;;;;1.67;1.02;;;17.00;96.20;;;;;;4974753;28;20026;-41
2024/04/06 08:05:38;;;;;;;2.05;1.02;;;17.00;96.20;;;;;;4974739;28;20031;-41
2024/04/06 08:08:04;;;;;;;2.55;0.88;;;17.00;96.10;;;;;;4974494;28;20081;-42
2024/04/06 08:10:30;;;;;;;2.60;0.98;;;17.10;96.10;;;;;;4974595;28;20111;-43
2024/04/06 08:12:55;;;;;;;1.85;0.90;;;17.10;96.10;;;;;;4974708;28;20098;-41
2024/04/06 08:15:21;;;;;;;1.33;0.80;;;17.10;96.00;;;;;;4973384;28;20086;-41
2024/04/06 08:17:52;;;;;;;1.73;0.80;;;17.20;96.00;;;;;;4974341;28;20106;-41
2024/04/06 08:20:18;;;;;;;1.17;0.77;;;17.20;96.10;;;;;;4973921;28;20027;-40
2024/04/06 08:22:44;;;;;;;1.77;0.80;;;17.20;95.90;;;;;;4974195;28;20057;-41
2024/04/06 08:25:11;;;;;;;2.00;0.90;;;17.30;95.90;;;;;;4974435;28;20047;-41
2024/04/06 08:27:37;;;;;;;1.58;0.90;;;17.30;95.80;;;;;;4974134;28;20098;-41
2024/04/06 08:30:04;;;;;;;1.30;1.00;;;17.30;95.80;;;;;;4973184;28;20043;-40
2024/04/06 08:32:31;;;;;;;1.00;0.88;;;17.40;95.80;;;;;;4974310;28;20027;-41
2024/04/06 08:34:58;;;;;;;1.15;0.80;;;17.40;95.70;;;;;;4974093;28;20027;-41
2024/04/06 08:37:24;;;;;;;1.15;0.80;;;17.50;95.70;;;;;;4974131;28;20031;-41
2024/04/06 08:39:50;;;;;;;1.17;0.82;;;17.50;95.60;;;;;;4974091;28;20053;-42
2024/04/06 08:42:22;;;;;;;1.75;0.90;;;17.50;95.50;;;;;;4974198;28;20027;-42
2024/04/06 08:44:49;;;;;;;0.95;0.82;;;17.60;95.50;;;;;;4974106;28;20041;-41
2024/04/06 08:47:16;;;;;;;2.00;0.70;;;17.70;95.50;;;;;;4974102;28;20262;-41
2024/04/06 08:49:43;;;;;;;1.48;0.80;;;17.70;95.40;;;;;;4973704;28;20035;-41
2024/04/06 08:52:11;;;;;;;2.58;1.00;;;17.80;95.40;;;;;;4972733;28;20121;-40
2024/04/06 08:54:38;;;;;;;2.50;1.00;;;17.90;94.30;;;;;;4973621;28;20509;-41
2024/04/06 08:57:04;;;;;;;5.82;1.27;;;18.00;93.70;;;;;;4973849;28;20030;-41
2024/04/06 08:59:33;;;;;;;2.72;1.00;;;18.20;93.70;;;;;;4973635;28;20031;-41
2024/04/06 09:02:00;;;;;;;6.47;0.98;;;18.30;93.80;;;;;;4973652;28;20068;-41
2024/04/06 09:04:26;;;;;;;2.65;1.20;;;18.30;93.70;;;;;;4973626;28;20553;-41
2024/04/06 09:06:51;;;;;;;1.95;0.93;;;18.30;93.80;;;;;;4973635;28;20094;-41
2024/04/06 09:09:17;;;;;;;3.08;1.10;;;18.40;93.90;;;;;;4973373;28;20069;-41
2024/04/06 09:11:46;;;;;;;1.90;1.10;;;18.40;93.90;;;;;;4973501;28;20089;-41
2024/04/06 09:14:12;;;;;;;3.95;1.10;;;18.40;93.90;;;;;;4973557;28;20026;-41
2024/04/06 09:16:43;;;;;;;3.30;1.10;;;18.40;93.90;;;;;;4972089;28;20093;-41
2024/04/06 09:19:09;;;;;;;3.83;1.20;;;18.40;94.00;;;;;;4971943;28;20031;-41
2024/04/06 09:21:35;;;;;;;4.75;1.10;;;18.40;94.00;;;;;;4973568;28;20085;-44
2024/04/06 09:24:03;;;;;;;2.47;1.13;;;18.50;94.00;;;;;;4973314;28;20512;-42
2024/04/06 09:26:33;;;;;;;1.33;0.80;;;18.50;94.00;;;;;;4973314;28;20027;-41
2024/04/06 09:28:59;;;;;;;3.80;1.10;;;18.50;94.00;;;;;;4973200;28;20026;-42
2024/04/06 09:31:26;;;;;;;4.95;1.00;;;18.50;94.00;;;;;;4972956;28;20027;-41
2024/04/06 09:33:56;;;;;;;3.97;1.10;;;18.60;94.00;;;;;;4973318;28;20342;-42
2024/04/06 09:36:22;;;;;;;2.30;0.82;;;18.60;94.00;;;;;;4973304;28;20042;-41
2024/04/06 09:38:50;;;;;;;2.47;0.88;;;18.70;94.00;;;;;;4973112;28;20035;-41
2024/04/06 09:41:17;;;;;;;2.03;0.80;;;18.60;94.00;;;;;;4973139;28;20101;-41
2024/04/06 09:43:48;;;;;;;2.35;0.90;;;18.70;93.90;;;;;;4973139;28;20033;-41
2024/04/06 09:46:15;;;;;;;2.20;1.00;;;18.70;93.90;;;;;;4973333;28;20027;-42
2024/04/06 09:48:41;;;;;;;3.30;0.90;;;18.70;93.90;;;;;;4972939;28;20030;-42
2024/04/06 09:51:07;;;;;;;2.38;1.10;;;18.80;93.90;;;;;;4973056;28;20497;-41
2024/04/06 09:53:34;;;;;;;1.98;0.80;;;18.80;93.90;;;;;;4973112;28;20054;-42
2024/04/06 09:56:02;;;;;;;1.67;0.80;;;18.80;93.90;;;;;;4973029;28;20494;-41
2024/04/06 09:58:29;;;;;;;1.05;0.90;;;18.90;93.90;;;;;;4972722;28;20034;-42
2024/04/06 10:00:56;;;;;;;2.15;1.00;;;18.90;93.80;;;;;;4972856;28;20070;-41
2024/04/06 10:03:32;;;;;;;1.88;0.90;;;18.90;93.80;;;;;;4973246;28;20371;-41
2024/04/06 10:06:12;;;;;;;2.90;0.80;;;19.00;93.80;;;;;;4973009;28;20033;-44
2024/04/06 10:08:56;;;;;;;1.23;0.90;;;19.00;93.70;;;;;;4972759;28;20069;-42
2024/04/06 10:11:26;;;;;;;1.90;0.80;;;19.00;93.70;;;;;;4972825;28;20019;-42
2024/04/06 10:14:05;;;;;;;2.35;1.10;;;19.00;93.70;;;;;;4973093;28;20019;-41
2024/04/06 10:16:32;;;;;;;1.73;1.00;;;19.10;93.70;;;;;;4972951;28;20019;-42
2024/04/06 10:19:02;;;;;;;3.50;1.00;;;19.10;93.70;;;;;;4972656;28;20037;-42
2024/04/06 10:21:33;;;;;;;1.27;0.90;;;19.20;93.60;;;;;;4972878;28;20023;-42
2024/04/06 10:24:01;;;;;;;1.95;0.80;;;19.20;93.90;;;;;;4972720;28;20031;-42
2024/04/06 10:26:27;;;;;;;1.30;0.90;;;19.20;93.60;;;;;;4972760;28;20438;-42
2024/04/06 10:28:53;;;;;;;1.35;0.90;;;19.30;93.60;;;;;;4972654;28;20027;-42
2024/04/06 10:31:19;;;;;;;1.95;0.90;;;19.30;93.50;;;;;;4972764;28;20023;-42
2024/04/06 10:33:44;;;;;;;1.73;0.82;;;19.40;93.50;;;;;;4973155;28;20422;-42
2024/04/06 10:36:11;;;;;;;1.55;1.00;;;19.40;93.50;;;;;;4972585;28;20081;-41
2024/04/06 10:38:39;;;;;;;4.57;0.90;;;19.40;93.40;;;;;;4972386;28;20482;-41
2024/04/06 10:41:05;;;;;;;2.60;0.90;;;19.50;93.40;;;;;;4972968;28;20442;-41
2024/04/06 10:43:32;;;;;;;1.88;1.00;;;19.50;93.30;;;;;;4974034;28;20030;-41
2024/04/06 10:45:59;;;;;;;1.75;1.10;;;19.50;93.30;;;;;;4976238;28;20034;-41
2024/04/06 10:48:25;;;;;;;2.10;0.90;;;19.60;93.30;;;;;;4975958;28;20506;-42
2024/04/06 10:50:51;;;;;;;1.00;0.73;;;19.60;93.20;;;;;;4975878;28;20077;-41
2024/04/06 10:53:18;;;;;;;2.45;1.00;;;19.60;93.20;;;;;;4975946;28;20086;-42
2024/04/06 10:55:46;;;;;;;1.42;1.10;;;19.60;93.10;;;;;;4975971;28;20037;-42
2024/04/06 10:58:12;;;;;;;2.20;1.00;;;19.70;93.20;;;;;;4974641;28;20026;-42
2024/04/06 11:00:40;;;;;;;3.78;1.27;;;19.70;93.10;;;;;;4975847;28;20031;-41
2024/04/06 11:03:07;;;;;;;2.00;1.10;;;19.70;93.10;;;;;;4975843;28;20540;-42
2024/04/06 11:05:35;;;;;;;1.55;1.00;;;19.70;93.00;;;;;;4975641;28;20035;-42
2024/04/06 11:08:03;;;;;;;2.45;1.00;;;19.80;93.00;;;;;;4975847;28;20027;-42
2024/04/06 11:10:29;;;;;;;1.42;0.88;;;19.80;93.10;;;;;;4975597;28;20046;-41
2024/04/06 11:12:57;;;;;;;1.90;1.00;;;19.80;93.00;;;;;;4975622;28;20027;-41
2024/04/06 11:15:25;;;;;;;1.80;0.95;;;19.80;92.90;;;;;;4975529;28;20513;-41
2024/04/06 11:17:50;;;;;;;3.28;0.93;;;19.80;93.00;;;;;;4975383;28;20033;-42
2024/04/06 11:20:16;;;;;;;0.93;0.80;;;19.90;92.90;;;;;;4975202;28;20035;-42
2024/04/06 11:22:45;;;;;;;1.88;1.17;;;19.90;92.80;;;;;;4975882;28;20023;-41
2024/04/06 11:25:18;;;;;;;1.52;1.20;;;19.90;92.80;;;;;;4975574;28;20054;-41
2024/04/06 11:27:50;;;;;;;2.38;0.93;;;19.90;92.80;;;;;;4975391;28;20037;-43
2024/04/06 11:30:17;;;;;;;2.22;1.10;;;19.90;93.10;;;;;;4975303;28;20070;-42
2024/04/06 11:32:43;;;;;;;2.10;0.90;;;20.00;92.70;;;;;;4975315;28;20090;-41
2024/04/06 11:35:09;;;;;;;2.35;1.00;;;20.00;92.60;;;;;;4975368;28;20030;-42
2024/04/06 11:37:35;;;;;;;1.25;0.60;;;20.00;92.60;;;;;;4975169;28;20082;-42
2024/04/06 11:40:01;;;;;;;2.13;1.02;;;20.10;92.60;;;;;;4975165;28;20029;-42
2024/04/06 11:42:27;;;;;;;3.58;0.90;;;20.00;92.50;;;;;;4975233;28;20421;-42
2024/04/06 11:44:53;;;;;;;2.22;0.85;;;20.10;92.90;;;;;;4975126;28;20031;-41
2024/04/06 11:47:19;;;;;;;1.40;0.80;;;20.10;92.60;;;;;;4974952;28;20023;-41
2024/04/06 11:49:44;;;;;;;1.58;0.90;;;20.10;92.50;;;;;;4974967;28;20026;-41
2024/04/06 11:52:11;;;;;;;1.25;0.82;;;20.10;92.50;;;;;;4975149;28;20162;-42
2024/04/06 11:54:37;;;;;;;1.75;0.80;;;20.10;92.40;;;;;;4974130;28;20035;-42
2024/04/06 11:57:03;;;;;;;1.85;0.80;;;20.10;92.40;;;;;;4974621;28;20027;-41
2024/04/06 11:59:29;;;;;;;1.95;0.90;;;20.10;92.50;;;;;;4974856;28;20030;-41
2024/04/06 12:01:55;;;;;;;2.72;1.00;;;20.10;92.50;;;;;;4974880;28;20425;-41
2024/04/06 12:04:21;;;;;;;0.98;0.77;;;20.10;92.50;;;;;;4974825;28;20503;-42
2024/04/06 12:06:47;;;;;;;2.03;0.88;;;20.10;92.40;;;;;;4974786;28;20035;-41
2024/04/06 12:09:13;;;;;;;1.10;0.68;;;20.10;92.40;;;;;;4972305;28;20528;-40
2024/04/06 12:11:38;;;;;;;1.23;0.60;;;20.10;90.30;;;;;;4974226;28;20030;-41
2024/04/06 12:14:04;;;;;;;2.25;0.75;;;20.30;86.00;;;;;;4974361;28;20029;-41
2024/04/06 12:16:30;;;;;;;3.25;0.90;;;20.50;87.40;;;;;;4973330;28;20442;-42
2024/04/06 12:18:56;;;;;;;2.45;0.90;;;20.60;87.80;;;;;;4973168;28;20557;-41
2024/04/06 12:21:23;;;;;;;2.80;0.88;;;20.60;88.40;;;;;;4973847;28;20027;-39
2024/04/06 12:23:49;;;;;;;1.85;0.90;;;20.60;88.90;;;;;;4974375;28;20031;-41
2024/04/06 12:26:15;;;;;;;2.33;0.68;;;20.60;89.50;;;;;;4974442;28;20089;-41
2024/04/06 12:28:40;;;;;;;1.48;0.70;;;20.60;90.00;;;;;;4974153;28;20033;-41
2024/04/06 12:31:06;;;;;;;1.85;0.70;;;20.50;90.20;;;;;;4974207;28;20019;-42
2024/04/06 12:33:32;;;;;;;2.63;0.90;;;20.50;90.30;;;;;;4974250;28;20569;-41
2024/04/06 12:35:58;;;;;;;1.58;0.63;;;20.50;90.50;;;;;;4974155;28;20031;-43
2024/04/06 12:38:24;;;;;;;1.08;0.60;;;20.50;90.60;;;;;;4974133;28;20113;-42
2024/04/06 12:40:50;;;;;;;1.85;0.80;;;20.50;90.60;;;;;;4974027;28;20035;-42
2024/04/06 12:43:15;;;;;;;1.83;0.70;;;20.50;90.70;;;;;;4974175;28;20034;-41